Time;durP1;ratioP1;P1;durP2;ratioP2;P2;SDS_P1;SDS_P2;PMS_P1;PMS_P2;Temp;Humidity;BMP_temperature;BMP_pressure;BME280_temperature;BME280_humidity;BME280_pressure;Samples;Min_cycle;Max_cycle;Signal;HPM_P1;HPM_P2
2021/01/29 00:02:12;;;;;;;6.40;3.13;;;21.60;51.70;;;;;;5075401;28;20170;-69
2021/01/29 00:04:41;;;;;;;4.20;2.53;;;21.60;51.70;;;;;;5075393;28;20174;-69
2021/01/29 00:07:07;;;;;;;4.73;2.77;;;21.60;51.70;;;;;;5075196;28;20431;-69
2021/01/29 00:09:35;;;;;;;4.20;2.40;;;21.60;51.80;;;;;;5057922;28;20459;-69
2021/01/29 00:12:00;;;;;;;2.93;2.63;;;21.60;51.80;;;;;;5075236;28;20416;-69
2021/01/29 00:14:26;;;;;;;4.70;2.57;;;21.60;51.80;;;;;;5075178;28;20917;-69
2021/01/29 00:16:52;;;;;;;5.50;2.90;;;21.60;51.80;;;;;;5074989;28;20568;-69
2021/01/29 00:19:17;;;;;;;3.60;2.70;;;21.60;51.80;;;;;;5075098;28;20584;-69
2021/01/29 00:21:43;;;;;;;4.53;2.93;;;21.60;51.80;;;;;;5075093;28;20270;-69
2021/01/29 00:24:09;;;;;;;4.33;2.97;;;21.60;51.80;;;;;;5075038;28;20167;-69
2021/01/29 00:26:35;;;;;;;3.50;2.83;;;21.50;51.80;;;;;;5075054;28;20335;-69
2021/01/29 00:29:00;;;;;;;5.37;2.70;;;21.50;51.80;;;;;;5074889;28;20166;-69
2021/01/29 00:31:26;;;;;;;4.03;2.37;;;21.50;51.80;;;;;;5056956;28;20176;-69
2021/01/29 00:33:52;;;;;;;5.97;2.73;;;21.60;51.90;;;;;;5074146;28;20166;-69
2021/01/29 00:36:17;;;;;;;3.47;2.57;;;21.50;51.80;;;;;;5074811;28;20548;-69
2021/01/29 00:38:44;;;;;;;4.40;2.40;;;21.60;51.90;;;;;;5074824;28;20656;-69
2021/01/29 00:41:09;;;;;;;2.67;2.23;;;21.50;51.80;;;;;;5074684;28;20177;-69
2021/01/29 00:43:35;;;;;;;3.07;2.27;;;21.50;51.80;;;;;;5074677;28;20484;-69
2021/01/29 00:46:01;;;;;;;3.30;2.43;;;21.50;51.80;;;;;;5074460;28;20253;-69
2021/01/29 00:48:26;;;;;;;3.13;2.20;;;21.50;51.80;;;;;;5074514;28;20262;-69
2021/01/29 00:50:52;;;;;;;3.87;2.57;;;21.50;51.80;;;;;;5074464;28;20171;-69
2021/01/29 00:53:17;;;;;;;2.93;2.50;;;21.50;51.80;;;;;;5056842;28;20185;-69
2021/01/29 00:55:43;;;;;;;3.20;2.20;;;21.50;51.80;;;;;;5074414;28;20314;-69
2021/01/29 00:58:09;;;;;;;4.00;2.63;;;21.50;51.80;;;;;;5073880;28;20555;-69
2021/01/29 01:00:34;;;;;;;3.40;2.67;;;21.50;51.80;;;;;;5074315;28;20170;-69
2021/01/29 01:03:00;;;;;;;4.20;2.33;;;21.50;51.80;;;;;;5074504;28;20210;-69
2021/01/29 01:05:26;;;;;;;4.60;2.80;;;21.50;51.70;;;;;;5074467;28;20660;-69
2021/01/29 01:07:53;;;;;;;3.53;2.33;;;21.50;51.70;;;;;;5074000;28;20201;-69
2021/01/29 01:10:20;;;;;;;3.50;2.90;;;21.50;51.80;;;;;;5074567;28;20413;-69
2021/01/29 01:12:46;;;;;;;3.67;2.40;;;21.50;51.70;;;;;;5074243;28;20778;-69
2021/01/29 01:15:21;;;;;;;3.57;2.83;;;21.50;51.70;;;;;;5073983;28;20413;-67
2021/01/29 01:17:48;;;;;;;3.57;2.20;;;21.50;51.70;;;;;;5073741;28;20232;-69
2021/01/29 01:20:16;;;;;;;5.03;2.87;;;21.50;51.80;;;;;;5073891;28;20401;-69
2021/01/29 01:22:42;;;;;;;2.90;2.40;;;21.50;51.80;;;;;;5055913;28;20420;-68
2021/01/29 01:25:08;;;;;;;3.80;2.63;;;21.50;51.80;;;;;;5073837;28;20401;-69
2021/01/29 01:27:34;;;;;;;2.13;1.93;;;21.50;51.80;;;;;;5073646;28;20210;-69
2021/01/29 01:29:59;;;;;;;2.97;2.60;;;21.50;51.90;;;;;;5073737;28;20447;-68
2021/01/29 01:32:25;;;;;;;4.00;2.10;;;21.50;51.80;;;;;;5073933;28;20236;-68
2021/01/29 01:34:51;;;;;;;3.13;2.50;;;21.50;51.80;;;;;;5073769;28;20192;-68
2021/01/29 01:37:16;;;;;;;4.00;2.50;;;21.50;51.80;;;;;;5073471;28;20688;-69
2021/01/29 01:39:42;;;;;;;4.47;2.43;;;21.50;51.80;;;;;;5073554;28;20167;-69
2021/01/29 01:42:07;;;;;;;3.17;2.67;;;21.40;51.80;;;;;;5073509;28;20171;-69
2021/01/29 01:44:36;;;;;;;2.83;2.50;;;21.50;51.80;;;;;;5055486;28;20167;-69
2021/01/29 01:47:23;;;;;;;2.57;2.23;;;21.40;51.80;;;;;;5073165;28;20665;-69
2021/01/29 01:49:56;;;;;;;2.17;1.67;;;21.40;51.80;;;;;;5066663;28;20441;-69
2021/01/29 01:52:30;;;;;;;2.70;2.00;;;21.40;51.80;;;;;;5055425;28;20412;-69
2021/01/29 01:55:10;;;;;;;2.80;2.20;;;21.40;51.80;;;;;;5073409;28;20393;-68
2021/01/29 01:57:38;;;;;;;2.90;2.60;;;21.40;51.90;;;;;;5055114;28;20837;-69
2021/01/29 02:00:11;;;;;;;3.73;2.10;;;21.40;51.90;;;;;;5055315;28;20415;-69
2021/01/29 02:02:38;;;;;;;2.47;2.10;;;21.40;51.90;;;;;;5055864;28;20567;-69
2021/01/29 02:05:11;;;;;;;4.13;2.60;;;21.40;51.90;;;;;;5073239;28;20459;-68
2021/01/29 02:07:49;;;;;;;3.70;2.50;;;21.40;51.90;;;;;;5055156;28;21007;-69
2021/01/29 02:10:15;;;;;;;4.30;2.00;;;21.40;51.90;;;;;;5073258;28;20887;-69
2021/01/29 02:12:40;;;;;;;2.90;1.97;;;21.40;51.90;;;;;;5073119;28;20432;-69
2021/01/29 02:15:12;;;;;;;3.00;2.00;;;21.40;51.90;;;;;;5073097;28;20455;-68
2021/01/29 02:17:59;;;;;;;2.67;2.00;;;21.40;51.90;;;;;;5054950;28;20206;-69
2021/01/29 02:20:41;;;;;;;2.20;2.00;;;21.40;51.90;;;;;;5073035;28;20453;-69
2021/01/29 02:23:32;;;;;;;4.20;2.77;;;21.40;51.90;;;;;;5055486;28;20453;-69
2021/01/29 02:26:28;;;;;;;2.43;2.23;;;21.30;51.90;;;;;;5073046;28;20391;-68
2021/01/29 02:29:15;;;;;;;2.57;2.00;;;21.30;51.90;;;;;;5072955;28;20833;-69
2021/01/29 02:31:40;;;;;;;3.40;2.17;;;21.30;51.90;;;;;;5073134;28;20397;-69
2021/01/29 02:34:15;;;;;;;2.73;1.90;;;21.30;52.00;;;;;;5072862;28;20762;-69
2021/01/29 02:36:46;;;;;;;3.37;2.00;;;21.30;52.00;;;;;;5072852;28;20185;-69
2021/01/29 02:39:49;;;;;;;2.60;2.10;;;21.30;52.00;;;;;;5054882;28;20782;-69
2021/01/29 02:42:38;;;;;;;2.80;2.10;;;21.30;51.90;;;;;;5072989;28;20762;-69
2021/01/29 02:45:07;;;;;;;2.40;1.93;;;21.30;52.00;;;;;;5072167;28;20928;-68
2021/01/29 02:48:03;;;;;;;2.70;1.80;;;21.30;52.00;;;;;;5072922;28;20465;-69
2021/01/29 02:51:08;;;;;;;2.13;1.87;;;21.30;52.00;;;;;;5072716;28;20389;-69
2021/01/29 02:54:07;;;;;;;2.60;1.70;;;21.30;52.00;;;;;;5054695;28;20416;-69
2021/01/29 02:56:40;;;;;;;2.67;2.00;;;21.30;52.00;;;;;;5070885;28;20440;-69
2021/01/29 02:59:11;;;;;;;3.40;2.80;;;21.30;52.00;;;;;;5076661;28;20389;-69
2021/01/29 03:01:39;;;;;;;2.87;1.97;;;21.30;52.00;;;;;;5076741;28;20408;-69
2021/01/29 03:04:18;;;;;;;2.00;1.80;;;21.20;51.90;;;;;;5076489;28;20408;-69
2021/01/29 03:06:47;;;;;;;3.40;2.60;;;21.30;52.00;;;;;;5059221;28;20428;-68
2021/01/29 03:09:16;;;;;;;2.50;2.00;;;21.30;52.00;;;;;;5076902;28;20899;-69
2021/01/29 03:12:20;;;;;;;1.70;1.50;;;21.30;52.00;;;;;;5076311;28;20405;-69
2021/01/29 03:14:48;;;;;;;3.27;2.07;;;21.30;51.90;;;;;;5076608;28;20392;-70
2021/01/29 03:17:33;;;;;;;3.10;1.57;;;21.30;52.00;;;;;;5076106;28;20791;-69
2021/01/29 03:20:16;;;;;;;3.80;2.17;;;21.30;52.00;;;;;;5076506;28;20385;-69
2021/01/29 03:22:48;;;;;;;2.60;2.20;;;21.30;52.00;;;;;;5076436;28;20433;-68
2021/01/29 03:25:23;;;;;;;2.30;2.10;;;21.30;52.00;;;;;;5076458;28;20724;-69
2021/01/29 03:27:54;;;;;;;2.20;2.00;;;21.30;52.00;;;;;;5076119;28;20949;-69
2021/01/29 03:30:31;;;;;;;2.80;2.00;;;21.20;51.90;;;;;;5058453;28;20930;-69
2021/01/29 03:32:59;;;;;;;1.83;1.70;;;21.30;52.00;;;;;;5075969;28;20411;-69
2021/01/29 03:35:33;;;;;;;2.70;2.03;;;21.30;52.00;;;;;;5076030;28;20899;-69
2021/01/29 03:38:17;;;;;;;1.73;1.60;;;21.30;52.00;;;;;;5075755;28;20558;-69
2021/01/29 03:40:47;;;;;;;2.33;1.90;;;21.30;52.00;;;;;;5075859;28;20393;-69
2021/01/29 03:43:41;;;;;;;2.87;2.00;;;21.30;52.00;;;;;;5075790;28;20415;-69
2021/01/29 03:46:18;;;;;;;2.10;1.90;;;21.30;52.00;;;;;;5075726;28;20385;-69
2021/01/29 03:48:57;;;;;;;2.00;1.70;;;21.20;52.00;;;;;;5076000;28;20494;-69
2021/01/29 03:51:45;;;;;;;2.70;2.00;;;21.20;51.90;;;;;;5075756;28;20389;-69
2021/01/29 03:54:34;;;;;;;1.80;1.60;;;21.30;52.00;;;;;;5056377;28;20423;-69
2021/01/29 03:57:14;;;;;;;2.70;1.90;;;21.20;51.90;;;;;;5075310;28;20479;-69
2021/01/29 04:00:05;;;;;;;2.50;1.90;;;21.20;52.00;;;;;;5075548;28;20389;-68
2021/01/29 04:02:41;;;;;;;2.97;1.80;;;21.20;51.90;;;;;;5057548;28;20431;-68
2021/01/29 04:05:12;;;;;;;2.33;2.13;;;21.20;51.90;;;;;;5074183;28;20401;-68
2021/01/29 04:07:51;;;;;;;2.83;2.63;;;21.20;51.90;;;;;;5075220;28;20448;-69
2021/01/29 04:10:20;;;;;;;2.50;1.90;;;21.20;51.90;;;;;;5074971;28;20634;-69
2021/01/29 04:13:15;;;;;;;3.20;1.93;;;21.20;51.90;;;;;;5075235;28;20412;-69
2021/01/29 04:15:51;;;;;;;3.67;2.60;;;21.20;51.90;;;;;;5075142;28;20416;-68
2021/01/29 04:18:34;;;;;;;1.90;1.53;;;21.20;51.90;;;;;;5075022;28;20448;-69
2021/01/29 04:21:25;;;;;;;2.43;2.13;;;21.20;51.90;;;;;;5075125;28;20400;-69
2021/01/29 04:23:57;;;;;;;2.90;1.80;;;21.20;51.90;;;;;;5075065;28;20420;-69
2021/01/29 04:26:28;;;;;;;1.70;1.60;;;21.20;51.90;;;;;;5074923;28;20795;-69
2021/01/29 04:29:08;;;;;;;2.10;1.77;;;21.20;52.00;;;;;;5075014;28;20385;-70
2021/01/29 04:31:37;;;;;;;2.30;2.00;;;21.20;51.90;;;;;;5073737;28;20416;-69
2021/01/29 04:34:12;;;;;;;1.70;1.60;;;21.20;51.90;;;;;;5057473;28;20420;-69
2021/01/29 04:36:40;;;;;;;1.97;1.73;;;21.20;51.90;;;;;;5074659;28;20503;-69
2021/01/29 04:39:12;;;;;;;2.53;1.83;;;21.20;51.90;;;;;;5074744;28;20409;-69
2021/01/29 04:42:08;;;;;;;2.50;1.73;;;21.20;51.90;;;;;;5074655;28;20404;-68
2021/01/29 04:44:56;;;;;;;2.10;1.60;;;21.20;51.90;;;;;;5074606;28;20478;-68
2021/01/29 04:47:35;;;;;;;1.73;1.43;;;21.20;51.90;;;;;;5074578;28;20504;-69
2021/01/29 04:50:48;;;;;;;2.27;1.77;;;21.20;52.00;;;;;;5056615;28;20454;-69
2021/01/29 04:53:38;;;;;;;1.80;1.60;;;21.20;52.00;;;;;;5032510;28;20445;-69
2021/01/29 04:56:19;;;;;;;1.80;1.57;;;21.10;51.90;;;;;;5072611;28;20421;-69
2021/01/29 04:59:11;;;;;;;2.00;1.70;;;21.10;51.90;;;;;;5074230;28;20506;-69
2021/01/29 05:02:03;;;;;;;1.93;1.70;;;21.10;51.90;;;;;;5074619;28;21086;-69
2021/01/29 05:04:54;;;;;;;3.40;1.80;;;21.10;51.90;;;;;;5074466;28;20412;-69
2021/01/29 05:07:57;;;;;;;2.50;1.90;;;21.10;51.90;;;;;;5074104;28;20432;-68
2021/01/29 05:10:39;;;;;;;3.13;2.10;;;21.10;51.90;;;;;;5074118;28;20403;-69
2021/01/29 05:13:20;;;;;;;1.60;1.50;;;21.10;52.00;;;;;;5074073;28;20392;-68
2021/01/29 05:16:04;;;;;;;1.87;1.50;;;21.10;52.00;;;;;;5073982;28;20772;-69
2021/01/29 05:19:17;;;;;;;1.70;1.40;;;21.10;51.90;;;;;;5072921;28;20460;-69
2021/01/29 05:22:15;;;;;;;4.43;1.50;;;21.00;51.90;;;;;;5073966;28;20462;-68
2021/01/29 05:25:15;;;;;;;2.83;1.93;;;21.10;52.00;;;;;;5073920;28;20404;-68
2021/01/29 05:28:14;;;;;;;1.90;1.63;;;21.10;52.00;;;;;;5073765;28;20424;-68
2021/01/29 05:31:27;;;;;;;2.00;1.50;;;21.10;52.10;;;;;;5073981;28;20393;-68
2021/01/29 05:34:33;;;;;;;1.90;1.50;;;21.00;52.00;;;;;;5031752;28;20414;-67
2021/01/29 05:37:23;;;;;;;2.10;1.80;;;21.00;52.00;;;;;;5031715;28;20493;-69
2021/01/29 05:40:01;;;;;;;1.80;1.50;;;21.00;52.00;;;;;;5069561;28;20421;-68
2021/01/29 05:42:45;;;;;;;2.53;2.07;;;21.00;52.20;;;;;;5073542;28;20393;-68
2021/01/29 05:45:16;;;;;;;1.70;1.53;;;21.10;52.00;;;;;;5073719;28;20467;-67
2021/01/29 05:48:00;;;;;;;1.83;1.60;;;21.00;51.90;;;;;;5073395;28;20782;-69
2021/01/29 05:50:49;;;;;;;2.33;1.70;;;21.10;51.90;;;;;;5073355;28;20503;-66
2021/01/29 05:53:39;;;;;;;2.70;1.87;;;21.10;51.90;;;;;;5073653;28;20388;-69
2021/01/29 05:56:30;;;;;;;2.80;1.90;;;21.10;51.90;;;;;;5055548;28;20381;-69
2021/01/29 05:59:37;;;;;;;1.80;1.40;;;21.10;51.90;;;;;;5072888;28;20515;-69
2021/01/29 06:02:17;;;;;;;2.20;1.70;;;21.10;51.80;;;;;;5073383;28;20393;-69
2021/01/29 06:05:06;;;;;;;2.27;1.57;;;21.10;51.80;;;;;;5073234;28;20399;-68
2021/01/29 06:07:57;;;;;;;2.53;1.70;;;21.10;51.80;;;;;;5073299;28;20464;-69
2021/01/29 06:10:44;;;;;;;2.37;1.83;;;21.20;51.90;;;;;;5073433;28;20412;-67
2021/01/29 06:13:21;;;;;;;5.43;1.70;;;21.20;51.80;;;;;;5073067;28;20487;-69
2021/01/29 06:16:02;;;;;;;2.40;1.80;;;21.20;51.80;;;;;;5073105;28;20408;-69
2021/01/29 06:18:58;;;;;;;2.77;2.10;;;21.20;51.60;;;;;;5072826;28;20527;-68
2021/01/29 06:21:43;;;;;;;2.47;2.17;;;21.20;51.50;;;;;;5073015;28;20389;-68
2021/01/29 06:24:46;;;;;;;2.00;1.73;;;21.20;51.40;;;;;;5073292;28;20467;-68
2021/01/29 06:27:46;;;;;;;2.77;1.60;;;21.20;51.40;;;;;;5030822;28;21002;-67
2021/01/29 06:30:23;;;;;;;2.13;1.67;;;21.20;51.30;;;;;;5031010;28;20512;-67
2021/01/29 06:32:58;;;;;;;2.03;1.73;;;21.20;51.40;;;;;;5063088;28;20423;-68
2021/01/29 06:35:34;;;;;;;1.93;1.50;;;21.20;51.40;;;;;;5072823;28;20498;-68
2021/01/29 06:38:11;;;;;;;2.30;1.90;;;21.20;51.50;;;;;;5071456;28;20995;-68
2021/01/29 06:41:00;;;;;;;2.33;1.60;;;21.20;51.50;;;;;;5073118;28;20734;-68
2021/01/29 06:43:45;;;;;;;2.10;1.43;;;21.20;51.50;;;;;;5072790;28;20380;-72
2021/01/29 06:46:35;;;;;;;1.63;1.17;;;21.20;51.50;;;;;;5073170;28;20389;-70
2021/01/29 06:49:13;;;;;;;1.50;1.30;;;21.30;51.60;;;;;;5072817;28;20397;-69
2021/01/29 06:52:07;;;;;;;1.70;1.20;;;21.30;51.50;;;;;;5072711;28;20962;-69
2021/01/29 06:55:01;;;;;;;1.50;1.40;;;21.30;51.40;;;;;;5072697;28;20381;-69
2021/01/29 06:57:44;;;;;;;3.70;1.43;;;21.30;51.40;;;;;;5072338;28;20472;-69
2021/01/29 07:00:47;;;;;;;2.20;1.40;;;21.30;51.30;;;;;;5073214;28;20488;-70
2021/01/29 07:03:54;;;;;;;1.97;1.50;;;21.30;51.30;;;;;;5072561;28;20455;-68
2021/01/29 07:06:20;;;;;;;1.50;1.30;;;21.30;51.30;;;;;;5072726;28;20477;-70
2021/01/29 07:09:08;;;;;;;1.97;1.63;;;21.30;51.30;;;;;;5071193;28;20911;-69
2021/01/29 07:12:05;;;;;;;1.27;1.17;;;21.40;51.20;;;;;;5072462;28;20198;-69
2021/01/29 07:14:43;;;;;;;1.53;1.43;;;21.40;51.20;;;;;;5072467;28;20400;-73
2021/01/29 07:17:15;;;;;;;2.40;1.30;;;21.40;51.20;;;;;;5072473;28;20448;-69
2021/01/29 07:19:46;;;;;;;1.60;1.43;;;21.40;51.20;;;;;;5072428;28;20417;-70
2021/01/29 07:22:36;;;;;;;2.07;1.40;;;21.40;51.10;;;;;;5071721;28;20417;-70
2021/01/29 07:25:10;;;;;;;1.83;1.10;;;21.40;51.10;;;;;;5072368;28;20407;-68
2021/01/29 07:27:44;;;;;;;1.80;1.37;;;21.50;51.20;;;;;;5072264;28;20442;-69
2021/01/29 07:30:31;;;;;;;1.23;1.07;;;21.50;51.20;;;;;;5072324;28;20910;-69
2021/01/29 07:33:21;;;;;;;1.63;1.43;;;21.40;51.10;;;;;;5072336;28;20809;-69
2021/01/29 07:36:10;;;;;;;2.17;1.30;;;21.50;51.10;;;;;;5072333;28;20949;-69
2021/01/29 07:38:59;;;;;;;1.60;1.10;;;21.50;51.10;;;;;;5072206;28;20444;-71
2021/01/29 07:41:27;;;;;;;1.60;1.00;;;21.50;51.10;;;;;;5072463;28;20441;-68
2021/01/29 07:44:10;;;;;;;1.30;1.20;;;21.50;51.10;;;;;;5073478;28;20458;-68
2021/01/29 07:46:54;;;;;;;1.73;1.37;;;21.50;51.00;;;;;;5076204;28;20507;-69
2021/01/29 07:49:35;;;;;;;2.70;1.40;;;21.50;51.00;;;;;;5075789;28;20407;-70
2021/01/29 07:52:07;;;;;;;1.47;1.30;;;21.50;51.00;;;;;;5075632;28;20393;-70
2021/01/29 07:54:45;;;;;;;2.17;1.40;;;21.50;51.00;;;;;;5075613;28;20757;-69
2021/01/29 07:57:20;;;;;;;1.87;1.20;;;21.50;51.00;;;;;;5075251;28;20475;-69
2021/01/29 08:00:06;;;;;;;1.90;1.30;;;21.50;51.00;;;;;;5075452;28;20411;-68
2021/01/29 08:03:01;;;;;;;2.00;1.40;;;21.50;50.90;;;;;;5074895;28;20420;-69
2021/01/29 08:05:37;;;;;;;2.77;1.70;;;21.50;51.00;;;;;;5075410;28;20766;-67
2021/01/29 08:08:10;;;;;;;1.40;1.30;;;21.50;50.90;;;;;;5075279;28;20430;-69
2021/01/29 08:10:40;;;;;;;1.60;1.20;;;21.50;51.00;;;;;;5075343;28;20416;-69
2021/01/29 08:13:30;;;;;;;1.43;1.30;;;21.50;50.90;;;;;;5075201;28;20413;-69
2021/01/29 08:16:01;;;;;;;1.60;1.20;;;21.60;51.00;;;;;;5075111;28;20874;-69
2021/01/29 08:18:46;;;;;;;1.47;1.20;;;21.60;50.90;;;;;;5075096;28;20522;-67
2021/01/29 08:21:14;;;;;;;1.90;1.10;;;21.60;50.90;;;;;;5075461;28;20401;-70
2021/01/29 08:24:07;;;;;;;2.07;1.70;;;21.60;50.90;;;;;;5075074;28;20736;-69
2021/01/29 08:27:10;;;;;;;1.17;1.03;;;21.60;50.90;;;;;;5074991;28;20432;-70
2021/01/29 08:29:45;;;;;;;1.40;1.00;;;21.60;50.80;;;;;;5040467;28;20528;-68
2021/01/29 08:32:35;;;;;;;1.83;1.33;;;21.70;50.90;;;;;;5074867;28;20419;-70
2021/01/29 08:35:08;;;;;;;1.50;1.13;;;21.70;50.90;;;;;;5074810;28;20415;-67
2021/01/29 08:37:56;;;;;;;1.77;1.33;;;21.70;50.90;;;;;;5074724;28;20475;-69
2021/01/29 08:40:38;;;;;;;1.43;0.97;;;21.70;50.80;;;;;;5074984;28;20412;-70
2021/01/29 08:43:24;;;;;;;2.20;1.63;;;21.70;50.80;;;;;;5074779;28;20388;-70
2021/01/29 08:46:08;;;;;;;1.43;1.20;;;21.80;50.90;;;;;;5073370;28;20495;-71
2021/01/29 08:49:00;;;;;;;2.30;1.53;;;21.80;50.80;;;;;;5074511;28;20409;-66
2021/01/29 08:51:36;;;;;;;1.93;1.37;;;21.80;50.80;;;;;;5058462;28;20867;-67
2021/01/29 08:54:23;;;;;;;1.23;0.90;;;21.80;50.80;;;;;;5074289;28;20758;-67
2021/01/29 08:57:15;;;;;;;2.07;1.00;;;21.90;50.90;;;;;;5074104;28;20767;-67
2021/01/29 08:59:41;;;;;;;1.97;1.50;;;21.80;50.80;;;;;;5074369;28;20775;-67
2021/01/29 09:02:36;;;;;;;1.47;1.13;;;21.80;50.70;;;;;;5074298;28;20408;-67
2021/01/29 09:05:10;;;;;;;1.50;1.40;;;21.90;50.80;;;;;;5074482;28;20401;-68
2021/01/29 09:07:43;;;;;;;1.40;1.10;;;21.90;50.80;;;;;;5074432;28;20780;-68
2021/01/29 09:10:47;;;;;;;1.60;1.10;;;21.80;50.70;;;;;;5073499;28;20427;-68
2021/01/29 09:13:17;;;;;;;2.97;1.23;;;21.90;50.80;;;;;;5074110;28;20393;-68
2021/01/29 09:15:50;;;;;;;1.90;1.20;;;21.90;50.80;;;;;;5073911;28;20412;-67
2021/01/29 09:18:38;;;;;;;1.40;1.27;;;21.90;50.80;;;;;;5073960;28;20521;-68
2021/01/29 09:21:23;;;;;;;1.87;1.30;;;21.90;50.90;;;;;;5074224;28;20400;-68
2021/01/29 09:23:54;;;;;;;2.03;1.10;;;21.90;50.90;;;;;;5072813;28;20409;-67
2021/01/29 09:26:54;;;;;;;1.30;1.10;;;21.90;50.90;;;;;;5072551;28;20810;-67
2021/01/29 09:29:29;;;;;;;1.80;1.23;;;21.90;50.90;;;;;;5073903;28;20392;-67
2021/01/29 09:32:03;;;;;;;1.70;1.50;;;21.90;50.90;;;;;;5073709;28;20400;-67
2021/01/29 09:34:38;;;;;;;1.83;1.13;;;21.90;50.90;;;;;;5072500;28;20408;-67
2021/01/29 09:37:13;;;;;;;2.10;1.53;;;21.90;50.90;;;;;;5072649;28;20546;-67
2021/01/29 09:39:45;;;;;;;1.47;1.10;;;21.90;50.90;;;;;;5073603;28;20446;-67
2021/01/29 09:42:19;;;;;;;1.33;1.10;;;21.90;50.90;;;;;;5073240;28;20901;-67
2021/01/29 09:45:04;;;;;;;3.27;1.70;;;21.90;50.90;;;;;;5073768;28;20476;-67
2021/01/29 09:47:43;;;;;;;2.30;1.60;;;21.90;50.90;;;;;;5073586;28;20439;-67
2021/01/29 09:50:16;;;;;;;1.80;1.40;;;21.90;50.90;;;;;;5073408;28;20820;-68
2021/01/29 09:53:21;;;;;;;1.60;1.30;;;21.90;50.80;;;;;;5073622;28;20393;-68
2021/01/29 09:55:55;;;;;;;2.40;1.40;;;22.00;50.90;;;;;;5033638;28;20416;-67
2021/01/29 09:59:31;;;;;;;2.70;1.80;;;21.90;50.80;;;;;;5073070;28;20474;-67
2021/01/29 10:02:35;;;;;;;2.20;1.47;;;21.90;50.80;;;;;;4999032;28;20422;-67
2021/01/29 10:05:00;;;;;;;4.37;2.30;;;21.90;50.80;;;;;;5015153;28;20425;-66
2021/01/29 10:07:33;;;;;;;2.80;1.77;;;21.90;50.90;;;;;;5030546;28;20568;-67
2021/01/29 10:10:19;;;;;;;2.60;1.60;;;22.00;50.90;;;;;;5031488;28;20164;-67
2021/01/29 10:12:57;;;;;;;4.53;1.30;;;22.00;50.90;;;;;;5031181;28;20445;-67
2021/01/29 10:15:29;;;;;;;2.03;1.30;;;22.00;50.90;;;;;;5031421;28;20560;-67
2021/01/29 10:18:06;;;;;;;2.50;1.67;;;22.00;50.90;;;;;;5031034;28;20868;-68
2021/01/29 10:20:35;;;;;;;2.93;1.67;;;22.00;50.90;;;;;;5031099;28;20394;-68
2021/01/29 10:23:22;;;;;;;1.67;1.57;;;22.00;50.80;;;;;;5030972;28;20421;-68
2021/01/29 10:25:58;;;;;;;2.87;1.30;;;22.00;50.80;;;;;;5030989;28;20410;-67
2021/01/29 10:28:46;;;;;;;2.73;1.57;;;22.00;50.80;;;;;;5030945;28;20387;-67
2021/01/29 10:31:13;;;;;;;1.80;1.37;;;22.10;50.90;;;;;;5035560;28;20443;-68
2021/01/29 10:33:46;;;;;;;2.63;1.50;;;22.00;50.80;;;;;;5072877;28;20409;-67
2021/01/29 10:36:31;;;;;;;2.07;1.30;;;22.10;51.00;;;;;;5073423;28;20497;-66
2021/01/29 10:39:11;;;;;;;2.50;1.87;;;22.10;50.90;;;;;;5055052;28;20460;-67
2021/01/29 10:41:57;;;;;;;1.70;1.40;;;22.10;50.90;;;;;;5072755;28;20381;-65
2021/01/29 10:44:28;;;;;;;2.73;1.37;;;22.10;50.90;;;;;;5072905;28;20436;-67
2021/01/29 10:47:11;;;;;;;4.20;1.87;;;22.10;50.90;;;;;;5072756;28;20432;-67
2021/01/29 10:49:36;;;;;;;3.43;1.90;;;22.10;51.20;;;;;;5072767;28;20384;-65
2021/01/29 10:52:33;;;;;;;3.80;1.63;;;22.10;50.90;;;;;;5072653;28;20445;-66
2021/01/29 10:55:14;;;;;;;3.20;1.67;;;22.10;50.80;;;;;;5072128;28;20244;-67
2021/01/29 10:57:43;;;;;;;3.23;1.50;;;22.10;50.90;;;;;;5072315;28;20559;-66
2021/01/29 11:00:15;;;;;;;1.93;1.30;;;22.10;50.80;;;;;;5071335;28;20783;-67
2021/01/29 11:02:46;;;;;;;2.67;1.40;;;22.20;50.90;;;;;;5072643;28;20871;-67
2021/01/29 11:05:33;;;;;;;3.90;1.33;;;22.20;50.90;;;;;;5072604;28;20381;-66
2021/01/29 11:08:24;;;;;;;3.87;1.60;;;22.20;50.90;;;;;;5072402;28;20436;-67
2021/01/29 11:11:07;;;;;;;1.67;1.30;;;22.20;50.90;;;;;;5071539;28;20413;-66
2021/01/29 11:14:06;;;;;;;2.10;1.50;;;22.20;50.90;;;;;;5072469;28;20459;-66
2021/01/29 11:16:42;;;;;;;1.67;1.30;;;22.20;50.90;;;;;;5072504;28;20443;-65
2021/01/29 11:19:18;;;;;;;1.90;1.30;;;22.30;50.90;;;;;;5075919;28;20487;-66
2021/01/29 11:21:47;;;;;;;3.20;1.57;;;22.30;50.90;;;;;;5074943;28;20408;-65
2021/01/29 11:24:22;;;;;;;1.80;1.50;;;22.30;50.90;;;;;;5076940;28;20396;-66
2021/01/29 11:26:59;;;;;;;2.10;1.40;;;22.30;50.90;;;;;;5076140;28;20416;-64
2021/01/29 11:29:46;;;;;;;2.03;1.40;;;22.30;50.90;;;;;;5076035;28;20376;-67
2021/01/29 11:32:24;;;;;;;2.23;1.40;;;22.30;50.80;;;;;;5076034;28;20381;-65
2021/01/29 11:35:15;;;;;;;2.77;1.80;;;22.30;50.80;;;;;;5076546;28;20406;-66
2021/01/29 11:37:56;;;;;;;2.80;1.33;;;22.30;50.80;;;;;;5070172;28;20829;-66
2021/01/29 11:40:50;;;;;;;1.30;1.20;;;22.30;50.90;;;;;;5074591;28;20416;-67
2021/01/29 11:43:50;;;;;;;1.90;1.20;;;22.30;50.80;;;;;;5075834;28;20393;-66
2021/01/29 11:46:45;;;;;;;3.20;1.23;;;22.30;50.80;;;;;;5075696;28;20824;-67
2021/01/29 11:49:19;;;;;;;2.03;1.63;;;22.30;50.80;;;;;;5059710;28;20404;-67
2021/01/29 11:52:11;;;;;;;1.70;1.20;;;22.30;50.80;;;;;;5076081;28;20389;-65
2021/01/29 11:54:43;;;;;;;2.30;1.43;;;22.30;50.80;;;;;;5076000;28;20377;-67
2021/01/29 11:57:33;;;;;;;1.60;1.37;;;22.30;50.90;;;;;;5075636;28;20546;-66
2021/01/29 12:00:17;;;;;;;2.17;1.20;;;22.40;50.90;;;;;;5074638;28;20825;-66
2021/01/29 12:02:55;;;;;;;4.20;1.40;;;22.40;50.90;;;;;;5057864;28;20495;-66
2021/01/29 12:05:36;;;;;;;2.00;1.30;;;22.40;50.90;;;;;;5075892;28;20400;-67
2021/01/29 12:08:27;;;;;;;3.20;1.43;;;22.40;50.90;;;;;;5075962;28;20507;-67
2021/01/29 12:11:15;;;;;;;1.90;1.10;;;22.40;50.90;;;;;;5042245;28;20431;-66
2021/01/29 12:14:14;;;;;;;1.70;1.20;;;22.40;50.90;;;;;;5076079;28;20391;-67
2021/01/29 12:16:40;;;;;;;1.77;1.30;;;22.40;50.90;;;;;;5075410;28;20471;-66
2021/01/29 12:19:08;;;;;;;1.67;1.27;;;22.40;50.90;;;;;;5075272;28;20452;-67
2021/01/29 12:21:49;;;;;;;2.67;1.30;;;22.40;50.90;;;;;;5073880;28;20499;-66
2021/01/29 12:24:46;;;;;;;1.67;1.37;;;22.40;50.90;;;;;;5075076;28;20851;-68
2021/01/29 12:27:21;;;;;;;2.50;1.40;;;22.40;50.90;;;;;;5037920;28;20441;-67
2021/01/29 12:29:50;;;;;;;6.37;2.20;;;22.40;50.90;;;;;;5074918;28;20744;-66
2021/01/29 12:32:22;;;;;;;2.40;1.30;;;22.30;50.80;;;;;;5073725;28;20412;-68
2021/01/29 12:35:05;;;;;;;4.20;1.20;;;22.30;50.80;;;;;;5075007;28;20412;-68
2021/01/29 12:37:34;;;;;;;2.33;1.30;;;22.40;50.90;;;;;;5073433;28;20467;-68
2021/01/29 12:40:38;;;;;;;1.43;1.23;;;22.30;50.80;;;;;;5074816;28;20930;-68
2021/01/29 12:43:25;;;;;;;1.83;1.23;;;22.30;50.90;;;;;;5016831;28;20453;-68
2021/01/29 12:45:56;;;;;;;2.20;1.40;;;22.20;50.90;;;;;;5054615;28;20421;-67
2021/01/29 12:48:51;;;;;;;1.47;1.13;;;22.20;50.90;;;;;;5075202;28;20763;-67
2021/01/29 12:51:44;;;;;;;1.80;1.07;;;22.20;50.90;;;;;;5074820;28;20420;-69
2021/01/29 12:54:41;;;;;;;3.47;1.57;;;22.20;50.90;;;;;;5057177;28;20957;-68
2021/01/29 12:57:24;;;;;;;2.10;1.63;;;22.20;51.00;;;;;;5074327;28;20468;-68
2021/01/29 12:59:58;;;;;;;1.63;1.37;;;22.20;51.00;;;;;;5074425;28;20398;-68
2021/01/29 13:02:32;;;;;;;1.70;1.17;;;22.10;50.90;;;;;;5074724;28;20394;-68
2021/01/29 13:05:20;;;;;;;4.10;1.30;;;22.10;50.90;;;;;;5074432;28;20430;-68
2021/01/29 13:07:54;;;;;;;1.73;1.20;;;22.10;50.90;;;;;;5056170;28;20946;-68
2021/01/29 13:10:43;;;;;;;2.43;1.50;;;22.10;51.00;;;;;;5073960;28;20419;-68
2021/01/29 13:13:27;;;;;;;4.73;1.47;;;22.10;51.00;;;;;;5072716;28;20989;-67
2021/01/29 13:15:56;;;;;;;5.03;1.70;;;22.10;51.10;;;;;;5073599;28;20435;-67
2021/01/29 13:18:30;;;;;;;4.17;1.70;;;22.10;51.10;;;;;;5073601;28;20818;-67
2021/01/29 13:21:07;;;;;;;3.40;2.43;;;22.10;51.00;;;;;;5072474;28;20876;-68
2021/01/29 13:23:32;;;;;;;2.60;1.70;;;22.00;50.80;;;;;;5072725;28;20760;-68
2021/01/29 13:26:24;;;;;;;2.33;1.60;;;22.00;50.90;;;;;;5071959;28;20405;-68
2021/01/29 13:29:00;;;;;;;2.17;1.40;;;22.00;50.90;;;;;;5063527;28;20222;-69
2021/01/29 13:31:37;;;;;;;2.30;1.40;;;22.00;51.00;;;;;;5072079;28;20457;-68
2021/01/29 13:34:21;;;;;;;2.40;1.70;;;22.00;51.00;;;;;;5072345;28;20397;-68
2021/01/29 13:37:24;;;;;;;3.37;1.67;;;22.00;51.00;;;;;;5072177;28;20489;-68
2021/01/29 13:39:51;;;;;;;2.50;1.50;;;22.00;51.00;;;;;;5073408;28;20507;-68
2021/01/29 13:42:30;;;;;;;3.53;1.40;;;22.00;51.00;;;;;;5072598;28;20401;-68
2021/01/29 13:45:02;;;;;;;2.40;1.20;;;22.00;51.00;;;;;;5073576;28;20389;-68
2021/01/29 13:47:38;;;;;;;2.23;1.30;;;22.00;51.00;;;;;;5073477;28;20791;-68
2021/01/29 13:50:16;;;;;;;3.83;1.47;;;22.00;51.00;;;;;;5073785;28;20391;-68
2021/01/29 13:52:56;;;;;;;3.83;1.20;;;22.00;51.00;;;;;;5073447;28;20403;-68
2021/01/29 13:55:33;;;;;;;2.50;1.33;;;22.00;50.90;;;;;;5073218;28;20405;-67